sensor_id;sensor_type;location;lat;lon;timestamp;temperature;humidity
45549;DHT22;31270;48.328;10.096;2022-11-15T00:00:09;8.20;99.90
45549;DHT22;31270;48.328;10.096;2022-11-15T00:02:35;8.10;99.90
45549;DHT22;31270;48.328;10.096;2022-11-15T00:05:01;8.10;99.90
45549;DHT22;31270;48.328;10.096;2022-11-15T00:07:26;8.00;99.90
45549;DHT22;31270;48.328;10.096;2022-11-15T00:09:52;7.90;99.90
45549;DHT22;31270;48.328;10.096;2022-11-15T00:12:17;7.90;99.90
45549;DHT22;31270;48.328;10.096;2022-11-15T00:14:43;7.90;99.90
45549;DHT22;31270;48.328;10.096;2022-11-15T00:17:08;7.90;99.90
45549;DHT22;31270;48.328;10.096;2022-11-15T00:19:34;7.80;99.90
45549;DHT22;31270;48.328;10.096;2022-11-15T00:22:00;7.80;99.90
45549;DHT22;31270;48.328;10.096;2022-11-15T00:24:25;7.80;99.90
45549;DHT22;31270;48.328;10.096;2022-11-15T00:26:51;7.80;99.90
45549;DHT22;31270;48.328;10.096;2022-11-15T00:29:17;7.80;99.90
45549;DHT22;31270;48.328;10.096;2022-11-15T00:31:42;7.70;99.90
45549;DHT22;31270;48.328;10.096;2022-11-15T00:34:09;7.80;99.90
45549;DHT22;31270;48.328;10.096;2022-11-15T00:36:35;7.70;99.90
45549;DHT22;31270;48.328;10.096;2022-11-15T00:39:03;7.70;99.90
45549;DHT22;31270;48.328;10.096;2022-11-15T00:41:29;7.70;99.90
45549;DHT22;31270;48.328;10.096;2022-11-15T00:43:54;7.60;99.90
45549;DHT22;31270;48.328;10.096;2022-11-15T00:46:20;7.60;99.90
45549;DHT22;31270;48.328;10.096;2022-11-15T00:48:46;7.60;99.90
45549;DHT22;31270;48.328;10.096;2022-11-15T00:51:11;7.60;99.90
45549;DHT22;31270;48.328;10.096;2022-11-15T00:53:37;7.50;99.90
45549;DHT22;31270;48.328;10.096;2022-11-15T00:56:02;7.50;99.90
45549;DHT22;31270;48.328;10.096;2022-11-15T00:58:28;7.40;99.90
45549;DHT22;31270;48.328;10.096;2022-11-15T01:00:54;7.40;99.90
45549;DHT22;31270;48.328;10.096;2022-11-15T01:03:20;7.40;99.90
45549;DHT22;31270;48.328;10.096;2022-11-15T01:05:45;7.30;99.90
45549;DHT22;31270;48.328;10.096;2022-11-15T01:08:15;7.30;99.90
45549;DHT22;31270;48.328;10.096;2022-11-15T01:10:42;7.20;99.90
45549;DHT22;31270;48.328;10.096;2022-11-15T01:13:08;7.10;99.90
45549;DHT22;31270;48.328;10.096;2022-11-15T01:15:33;7.00;99.90
45549;DHT22;31270;48.328;10.096;2022-11-15T01:17:59;7.00;99.90
45549;DHT22;31270;48.328;10.096;2022-11-15T01:20:24;6.90;99.90
45549;DHT22;31270;48.328;10.096;2022-11-15T01:22:50;6.90;99.90
45549;DHT22;31270;48.328;10.096;2022-11-15T01:25:15;6.80;99.90
45549;DHT22;31270;48.328;10.096;2022-11-15T01:27:41;6.80;99.90
45549;DHT22;31270;48.328;10.096;2022-11-15T01:30:07;6.90;99.90
45549;DHT22;31270;48.328;10.096;2022-11-15T01:32:33;6.80;99.90
45549;DHT22;31270;48.328;10.096;2022-11-15T01:35:00;6.80;99.90
45549;DHT22;31270;48.328;10.096;2022-11-15T01:37:25;6.80;99.90
45549;DHT22;31270;48.328;10.096;2022-11-15T01:39:52;6.80;99.90
45549;DHT22;31270;48.328;10.096;2022-11-15T01:42:18;6.80;99.90
45549;DHT22;31270;48.328;10.096;2022-11-15T01:44:47;6.80;99.90
45549;DHT22;31270;48.328;10.096;2022-11-15T01:47:33;6.80;99.90
45549;DHT22;31270;48.328;10.096;2022-11-15T01:50:04;6.70;99.90
45549;DHT22;31270;48.328;10.096;2022-11-15T01:52:32;6.70;99.90
45549;DHT22;31270;48.328;10.096;2022-11-15T01:55:09;6.60;99.90
45549;DHT22;31270;48.328;10.096;2022-11-15T01:57:37;6.60;99.90
45549;DHT22;31270;48.328;10.096;2022-11-15T02:00:05;6.50;99.90
45549;DHT22;31270;48.328;10.096;2022-11-15T02:02:32;6.60;99.90
45549;DHT22;31270;48.328;10.096;2022-11-15T02:04:58;6.50;99.90
45549;DHT22;31270;48.328;10.096;2022-11-15T02:07:24;6.50;99.90
45549;DHT22;31270;48.328;10.096;2022-11-15T02:09:52;6.50;99.90
45549;DHT22;31270;48.328;10.096;2022-11-15T02:12:20;6.40;99.90
45549;DHT22;31270;48.328;10.096;2022-11-15T02:14:50;6.40;99.90
45549;DHT22;31270;48.328;10.096;2022-11-15T02:20:26;6.40;99.90
45549;DHT22;31270;48.328;10.096;2022-11-15T02:23:12;6.40;99.90
45549;DHT22;31270;48.328;10.096;2022-11-15T02:34:39;6.10;99.90
45549;DHT22;31270;48.328;10.096;2022-11-15T02:40:02;6.10;99.90
45549;DHT22;31270;48.328;10.096;2022-11-15T02:42:36;6.00;99.90
45549;DHT22;31270;48.328;10.096;2022-11-15T02:45:30;6.00;99.90
45549;DHT22;31270;48.328;10.096;2022-11-15T02:47:59;5.90;99.90
45549;DHT22;31270;48.328;10.096;2022-11-15T02:50:28;5.90;99.90
45549;DHT22;31270;48.328;10.096;2022-11-15T02:52:54;5.80;99.90
45549;DHT22;31270;48.328;10.096;2022-11-15T02:55:32;5.80;99.90
45549;DHT22;31270;48.328;10.096;2022-11-15T02:58:21;5.70;99.90
45549;DHT22;31270;48.328;10.096;2022-11-15T03:00:53;5.70;99.90
45549;DHT22;31270;48.328;10.096;2022-11-15T03:03:36;5.60;99.90
45549;DHT22;31270;48.328;10.096;2022-11-15T03:06:20;5.60;99.90
45549;DHT22;31270;48.328;10.096;2022-11-15T03:11:29;5.40;99.90
45549;DHT22;31270;48.328;10.096;2022-11-15T03:19:45;5.30;99.90
45549;DHT22;31270;48.328;10.096;2022-11-15T03:22:15;5.30;99.90
45549;DHT22;31270;48.328;10.096;2022-11-15T03:24:43;5.20;99.90
45549;DHT22;31270;48.328;10.096;2022-11-15T03:27:14;5.20;99.90
45549;DHT22;31270;48.328;10.096;2022-11-15T03:29:46;5.10;99.90
45549;DHT22;31270;48.328;10.096;2022-11-15T03:32:17;5.10;99.90
45549;DHT22;31270;48.328;10.096;2022-11-15T03:35:23;5.10;99.90
45549;DHT22;31270;48.328;10.096;2022-11-15T03:37:59;5.10;99.90
45549;DHT22;31270;48.328;10.096;2022-11-15T03:40:33;5.00;99.90
45549;DHT22;31270;48.328;10.096;2022-11-15T03:46:01;4.90;99.90
45549;DHT22;31270;48.328;10.096;2022-11-15T03:48:34;4.90;99.90
45549;DHT22;31270;48.328;10.096;2022-11-15T03:51:01;4.90;99.90
45549;DHT22;31270;48.328;10.096;2022-11-15T03:53:28;4.90;99.90
45549;DHT22;31270;48.328;10.096;2022-11-15T03:55:53;4.90;99.90
45549;DHT22;31270;48.328;10.096;2022-11-15T03:58:19;4.90;99.90
45549;DHT22;31270;48.328;10.096;2022-11-15T04:00:45;4.90;99.90
45549;DHT22;31270;48.328;10.096;2022-11-15T04:03:10;4.90;99.90
45549;DHT22;31270;48.328;10.096;2022-11-15T04:05:36;4.90;99.90
45549;DHT22;31270;48.328;10.096;2022-11-15T04:08:02;4.90;99.90
45549;DHT22;31270;48.328;10.096;2022-11-15T04:10:27;4.80;99.90
45549;DHT22;31270;48.328;10.096;2022-11-15T04:12:53;4.80;99.90
45549;DHT22;31270;48.328;10.096;2022-11-15T04:15:22;4.80;99.90
45549;DHT22;31270;48.328;10.096;2022-11-15T04:17:53;4.80;99.90
45549;DHT22;31270;48.328;10.096;2022-11-15T04:20:19;4.70;99.90
45549;DHT22;31270;48.328;10.096;2022-11-15T04:23:09;4.70;99.90
45549;DHT22;31270;48.328;10.096;2022-11-15T04:26:08;4.70;99.90
45549;DHT22;31270;48.328;10.096;2022-11-15T04:28:36;4.80;99.90
45549;DHT22;31270;48.328;10.096;2022-11-15T04:31:21;4.70;99.90
45549;DHT22;31270;48.328;10.096;2022-11-15T04:33:47;4.70;99.90
45549;DHT22;31270;48.328;10.096;2022-11-15T04:36:13;4.60;99.90
45549;DHT22;31270;48.328;10.096;2022-11-15T04:38:57;4.60;99.90
45549;DHT22;31270;48.328;10.096;2022-11-15T04:41:22;4.60;99.90
45549;DHT22;31270;48.328;10.096;2022-11-15T04:43:48;4.60;99.90
45549;DHT22;31270;48.328;10.096;2022-11-15T04:46:13;4.60;99.90
45549;DHT22;31270;48.328;10.096;2022-11-15T04:48:39;4.60;99.90
45549;DHT22;31270;48.328;10.096;2022-11-15T04:51:05;4.70;99.90
45549;DHT22;31270;48.328;10.096;2022-11-15T04:53:30;4.70;99.90
45549;DHT22;31270;48.328;10.096;2022-11-15T04:55:56;4.70;99.90
45549;DHT22;31270;48.328;10.096;2022-11-15T04:58:21;4.60;99.90
45549;DHT22;31270;48.328;10.096;2022-11-15T05:00:47;4.70;99.90
45549;DHT22;31270;48.328;10.096;2022-11-15T05:03:13;4.80;99.90
45549;DHT22;31270;48.328;10.096;2022-11-15T05:05:58;4.80;99.90
45549;DHT22;31270;48.328;10.096;2022-11-15T05:08:24;4.80;99.90
45549;DHT22;31270;48.328;10.096;2022-11-15T05:10:50;4.80;99.90
45549;DHT22;31270;48.328;10.096;2022-11-15T05:13:16;4.80;99.90
45549;DHT22;31270;48.328;10.096;2022-11-15T05:15:42;4.90;99.90
45549;DHT22;31270;48.328;10.096;2022-11-15T05:18:08;4.90;99.90
45549;DHT22;31270;48.328;10.096;2022-11-15T05:20:33;4.80;99.90
45549;DHT22;31270;48.328;10.096;2022-11-15T05:22:59;4.90;99.90
45549;DHT22;31270;48.328;10.096;2022-11-15T05:25:25;4.90;99.90
45549;DHT22;31270;48.328;10.096;2022-11-15T05:27:51;4.90;99.90
45549;DHT22;31270;48.328;10.096;2022-11-15T05:30:17;5.00;99.90
45549;DHT22;31270;48.328;10.096;2022-11-15T05:32:43;4.90;99.90
45549;DHT22;31270;48.328;10.096;2022-11-15T05:35:13;4.90;99.90
45549;DHT22;31270;48.328;10.096;2022-11-15T05:37:40;4.90;99.90
45549;DHT22;31270;48.328;10.096;2022-11-15T05:40:06;4.90;99.90
45549;DHT22;31270;48.328;10.096;2022-11-15T05:42:33;4.90;99.90
45549;DHT22;31270;48.328;10.096;2022-11-15T05:45:00;5.00;99.90
45549;DHT22;31270;48.328;10.096;2022-11-15T05:47:29;5.00;99.90
45549;DHT22;31270;48.328;10.096;2022-11-15T05:49:56;4.90;99.90
45549;DHT22;31270;48.328;10.096;2022-11-15T05:52:25;4.90;99.90
45549;DHT22;31270;48.328;10.096;2022-11-15T05:54:54;4.90;99.90
45549;DHT22;31270;48.328;10.096;2022-11-15T05:57:20;5.00;99.90
45549;DHT22;31270;48.328;10.096;2022-11-15T05:59:46;4.90;99.90
45549;DHT22;31270;48.328;10.096;2022-11-15T06:02:12;4.90;99.90
45549;DHT22;31270;48.328;10.096;2022-11-15T06:04:38;4.90;99.90
45549;DHT22;31270;48.328;10.096;2022-11-15T06:07:03;4.80;99.90
45549;DHT22;31270;48.328;10.096;2022-11-15T06:09:29;4.80;99.90
45549;DHT22;31270;48.328;10.096;2022-11-15T06:11:55;4.80;99.90
45549;DHT22;31270;48.328;10.096;2022-11-15T06:14:20;4.70;99.90
45549;DHT22;31270;48.328;10.096;2022-11-15T06:16:46;4.70;99.90
45549;DHT22;31270;48.328;10.096;2022-11-15T06:19:11;4.70;99.90
45549;DHT22;31270;48.328;10.096;2022-11-15T06:21:37;4.70;99.90
45549;DHT22;31270;48.328;10.096;2022-11-15T06:24:03;4.70;99.90
45549;DHT22;31270;48.328;10.096;2022-11-15T06:26:29;4.70;99.90
45549;DHT22;31270;48.328;10.096;2022-11-15T06:28:54;4.60;99.90
45549;DHT22;31270;48.328;10.096;2022-11-15T06:31:20;4.60;99.90
45549;DHT22;31270;48.328;10.096;2022-11-15T06:33:46;4.60;99.90
45549;DHT22;31270;48.328;10.096;2022-11-15T06:36:12;4.60;99.90
45549;DHT22;31270;48.328;10.096;2022-11-15T06:38:44;4.60;99.90
45549;DHT22;31270;48.328;10.096;2022-11-15T06:41:11;4.70;99.90
45549;DHT22;31270;48.328;10.096;2022-11-15T06:43:37;4.60;99.90
45549;DHT22;31270;48.328;10.096;2022-11-15T06:46:05;4.60;99.90
45549;DHT22;31270;48.328;10.096;2022-11-15T06:48:32;4.50;99.90
45549;DHT22;31270;48.328;10.096;2022-11-15T06:51:00;4.50;99.90
45549;DHT22;31270;48.328;10.096;2022-11-15T06:53:27;4.50;99.90
45549;DHT22;31270;48.328;10.096;2022-11-15T06:55:53;4.50;99.90
45549;DHT22;31270;48.328;10.096;2022-11-15T06:58:20;4.50;99.90
45549;DHT22;31270;48.328;10.096;2022-11-15T07:00:46;4.40;99.90
45549;DHT22;31270;48.328;10.096;2022-11-15T07:03:12;4.40;99.90
45549;DHT22;31270;48.328;10.096;2022-11-15T07:05:37;4.50;99.90
45549;DHT22;31270;48.328;10.096;2022-11-15T07:08:03;4.50;99.90
45549;DHT22;31270;48.328;10.096;2022-11-15T07:10:29;4.50;99.90
45549;DHT22;31270;48.328;10.096;2022-11-15T07:12:56;4.60;99.90
45549;DHT22;31270;48.328;10.096;2022-11-15T07:15:26;4.60;99.90
45549;DHT22;31270;48.328;10.096;2022-11-15T07:17:51;4.70;99.90
45549;DHT22;31270;48.328;10.096;2022-11-15T07:20:17;4.70;99.90
45549;DHT22;31270;48.328;10.096;2022-11-15T07:22:43;4.80;99.90
45549;DHT22;31270;48.328;10.096;2022-11-15T07:25:11;4.80;99.90
45549;DHT22;31270;48.328;10.096;2022-11-15T07:27:36;4.80;99.90
45549;DHT22;31270;48.328;10.096;2022-11-15T07:30:03;4.90;99.90
45549;DHT22;31270;48.328;10.096;2022-11-15T07:32:29;4.80;99.90
45549;DHT22;31270;48.328;10.096;2022-11-15T07:34:54;4.90;99.90
45549;DHT22;31270;48.328;10.096;2022-11-15T07:37:20;4.90;99.90
45549;DHT22;31270;48.328;10.096;2022-11-15T07:39:46;5.00;99.90
45549;DHT22;31270;48.328;10.096;2022-11-15T07:42:11;5.00;99.90
45549;DHT22;31270;48.328;10.096;2022-11-15T07:44:55;5.00;99.90
45549;DHT22;31270;48.328;10.096;2022-11-15T07:47:21;5.10;99.90
45549;DHT22;31270;48.328;10.096;2022-11-15T07:49:47;5.10;99.90
45549;DHT22;31270;48.328;10.096;2022-11-15T07:52:13;5.20;99.90
45549;DHT22;31270;48.328;10.096;2022-11-15T07:54:39;5.20;99.90
45549;DHT22;31270;48.328;10.096;2022-11-15T07:57:05;5.30;99.90
45549;DHT22;31270;48.328;10.096;2022-11-15T07:59:32;5.40;99.90
45549;DHT22;31270;48.328;10.096;2022-11-15T08:01:57;5.50;99.90
45549;DHT22;31270;48.328;10.096;2022-11-15T08:04:24;5.50;99.90
45549;DHT22;31270;48.328;10.096;2022-11-15T08:06:50;5.60;99.90
45549;DHT22;31270;48.328;10.096;2022-11-15T08:09:16;5.60;99.90
45549;DHT22;31270;48.328;10.096;2022-11-15T08:11:41;5.70;99.90
45549;DHT22;31270;48.328;10.096;2022-11-15T08:14:07;5.80;99.90
45549;DHT22;31270;48.328;10.096;2022-11-15T08:16:32;5.80;99.90
45549;DHT22;31270;48.328;10.096;2022-11-15T08:18:58;5.90;99.90
45549;DHT22;31270;48.328;10.096;2022-11-15T08:21:24;6.00;99.90
45549;DHT22;31270;48.328;10.096;2022-11-15T08:23:50;6.00;99.90
45549;DHT22;31270;48.328;10.096;2022-11-15T08:26:15;6.00;99.90
45549;DHT22;31270;48.328;10.096;2022-11-15T08:28:42;6.10;99.90
45549;DHT22;31270;48.328;10.096;2022-11-15T08:31:14;6.10;99.90
45549;DHT22;31270;48.328;10.096;2022-11-15T08:33:40;6.10;99.90
45549;DHT22;31270;48.328;10.096;2022-11-15T08:36:06;6.20;99.90
45549;DHT22;31270;48.328;10.096;2022-11-15T08:38:31;6.20;99.90
45549;DHT22;31270;48.328;10.096;2022-11-15T08:41:03;6.20;99.90
45549;DHT22;31270;48.328;10.096;2022-11-15T08:43:29;6.30;99.90
45549;DHT22;31270;48.328;10.096;2022-11-15T08:45:58;6.30;99.90
45549;DHT22;31270;48.328;10.096;2022-11-15T08:48:24;6.40;99.90
45549;DHT22;31270;48.328;10.096;2022-11-15T08:50:54;6.50;99.90
45549;DHT22;31270;48.328;10.096;2022-11-15T08:53:21;6.60;99.90
45549;DHT22;31270;48.328;10.096;2022-11-15T08:55:46;6.60;99.90
45549;DHT22;31270;48.328;10.096;2022-11-15T08:58:12;6.70;99.90
45549;DHT22;31270;48.328;10.096;2022-11-15T09:00:38;6.70;99.90
45549;DHT22;31270;48.328;10.096;2022-11-15T09:03:04;6.70;99.90
45549;DHT22;31270;48.328;10.096;2022-11-15T09:05:31;6.90;99.90
45549;DHT22;31270;48.328;10.096;2022-11-15T09:07:56;6.90;99.90
45549;DHT22;31270;48.328;10.096;2022-11-15T09:10:22;6.90;99.90
45549;DHT22;31270;48.328;10.096;2022-11-15T09:12:48;7.00;99.90
45549;DHT22;31270;48.328;10.096;2022-11-15T09:15:15;7.10;99.90
45549;DHT22;31270;48.328;10.096;2022-11-15T09:17:41;7.10;99.90
45549;DHT22;31270;48.328;10.096;2022-11-15T09:20:07;7.20;99.90
45549;DHT22;31270;48.328;10.096;2022-11-15T09:22:34;7.30;99.90
45549;DHT22;31270;48.328;10.096;2022-11-15T09:25:00;7.40;99.90
45549;DHT22;31270;48.328;10.096;2022-11-15T09:27:29;7.50;99.90
45549;DHT22;31270;48.328;10.096;2022-11-15T09:29:55;7.60;99.90
45549;DHT22;31270;48.328;10.096;2022-11-15T09:32:21;7.80;99.90
45549;DHT22;31270;48.328;10.096;2022-11-15T09:34:49;7.80;99.90
45549;DHT22;31270;48.328;10.096;2022-11-15T09:37:14;8.00;99.90
45549;DHT22;31270;48.328;10.096;2022-11-15T09:39:40;8.10;99.90
45549;DHT22;31270;48.328;10.096;2022-11-15T09:45:18;8.40;99.90
45549;DHT22;31270;48.328;10.096;2022-11-15T09:48:00;8.50;99.90
45549;DHT22;31270;48.328;10.096;2022-11-15T09:50:49;8.50;99.90
45549;DHT22;31270;48.328;10.096;2022-11-15T09:53:25;8.60;99.90
45549;DHT22;31270;48.328;10.096;2022-11-15T09:58:38;8.60;99.90
45549;DHT22;31270;48.328;10.096;2022-11-15T10:01:15;8.50;99.90
45549;DHT22;31270;48.328;10.096;2022-11-15T10:03:42;8.50;99.90
45549;DHT22;31270;48.328;10.096;2022-11-15T10:06:10;8.40;99.90
45549;DHT22;31270;48.328;10.096;2022-11-15T10:08:56;8.50;99.90
45549;DHT22;31270;48.328;10.096;2022-11-15T10:11:27;8.60;99.90
45549;DHT22;31270;48.328;10.096;2022-11-15T10:13:56;8.70;99.90
45549;DHT22;31270;48.328;10.096;2022-11-15T10:19:52;9.10;99.90
45549;DHT22;31270;48.328;10.096;2022-11-15T10:22:39;9.20;99.90
45549;DHT22;31270;48.328;10.096;2022-11-15T10:27:34;9.40;99.90
45549;DHT22;31270;48.328;10.096;2022-11-15T10:30:00;9.60;99.90
45549;DHT22;31270;48.328;10.096;2022-11-15T10:32:26;9.70;99.90
45549;DHT22;31270;48.328;10.096;2022-11-15T10:34:52;9.70;99.90
45549;DHT22;31270;48.328;10.096;2022-11-15T10:37:30;9.80;99.90
45549;DHT22;31270;48.328;10.096;2022-11-15T10:40:17;10.00;99.90
45549;DHT22;31270;48.328;10.096;2022-11-15T10:42:44;10.20;99.90
45549;DHT22;31270;48.328;10.096;2022-11-15T10:45:28;10.40;99.90
45549;DHT22;31270;48.328;10.096;2022-11-15T10:47:54;10.50;99.90
45549;DHT22;31270;48.328;10.096;2022-11-15T10:50:49;10.60;99.90
45549;DHT22;31270;48.328;10.096;2022-11-15T10:55:53;10.70;99.90
45549;DHT22;31270;48.328;10.096;2022-11-15T10:58:41;10.90;99.90
45549;DHT22;31270;48.328;10.096;2022-11-15T11:01:25;11.00;99.90
45549;DHT22;31270;48.328;10.096;2022-11-15T11:04:17;11.10;99.90
45549;DHT22;31270;48.328;10.096;2022-11-15T11:06:54;11.30;99.90
45549;DHT22;31270;48.328;10.096;2022-11-15T11:09:32;11.40;99.90
45549;DHT22;31270;48.328;10.096;2022-11-15T11:11:59;11.40;99.90
45549;DHT22;31270;48.328;10.096;2022-11-15T11:14:31;11.60;99.90
45549;DHT22;31270;48.328;10.096;2022-11-15T11:19:35;11.70;99.90
45549;DHT22;31270;48.328;10.096;2022-11-15T11:22:17;11.80;99.90
45549;DHT22;31270;48.328;10.096;2022-11-15T11:25:08;11.90;99.90
45549;DHT22;31270;48.328;10.096;2022-11-15T11:27:42;11.90;99.90
45549;DHT22;31270;48.328;10.096;2022-11-15T11:38:03;12.20;99.90
45549;DHT22;31270;48.328;10.096;2022-11-15T11:40:45;12.20;99.90
45549;DHT22;31270;48.328;10.096;2022-11-15T11:43:47;12.30;99.90
45549;DHT22;31270;48.328;10.096;2022-11-15T11:49:32;12.40;99.90
45549;DHT22;31270;48.328;10.096;2022-11-15T11:52:22;12.40;99.90
45549;DHT22;31270;48.328;10.096;2022-11-15T11:55:17;12.60;99.90
45549;DHT22;31270;48.328;10.096;2022-11-15T11:58:17;12.70;99.90
45549;DHT22;31270;48.328;10.096;2022-11-15T12:00:55;12.60;99.90
45549;DHT22;31270;48.328;10.096;2022-11-15T12:03:46;12.70;99.90
45549;DHT22;31270;48.328;10.096;2022-11-15T12:08:59;12.80;99.90
45549;DHT22;31270;48.328;10.096;2022-11-15T12:14:16;13.00;99.90
45549;DHT22;31270;48.328;10.096;2022-11-15T12:16:43;13.10;99.90
45549;DHT22;31270;48.328;10.096;2022-11-15T12:19:08;13.10;99.90
45549;DHT22;31270;48.328;10.096;2022-11-15T12:21:48;13.20;99.90
45549;DHT22;31270;48.328;10.096;2022-11-15T12:24:21;13.40;99.90
45549;DHT22;31270;48.328;10.096;2022-11-15T12:29:38;13.50;99.90
45549;DHT22;31270;48.328;10.096;2022-11-15T12:32:11;13.50;99.90
45549;DHT22;31270;48.328;10.096;2022-11-15T12:34:43;13.60;99.90
45549;DHT22;31270;48.328;10.096;2022-11-15T12:40:23;13.70;99.90
45549;DHT22;31270;48.328;10.096;2022-11-15T12:43:32;13.80;99.90
45549;DHT22;31270;48.328;10.096;2022-11-15T12:45:49;13.80;99.90
45549;DHT22;31270;48.328;10.096;2022-11-15T13:04:21;13.90;99.90
45549;DHT22;31270;48.328;10.096;2022-11-15T13:06:49;13.90;99.90
45549;DHT22;31270;48.328;10.096;2022-11-15T13:12:09;13.70;99.90
45549;DHT22;31270;48.328;10.096;2022-11-15T13:14:42;13.70;99.90
45549;DHT22;31270;48.328;10.096;2022-11-15T13:17:36;13.70;99.90
45549;DHT22;31270;48.328;10.096;2022-11-15T13:25:33;13.60;99.90
45549;DHT22;31270;48.328;10.096;2022-11-15T13:30:50;13.60;99.90
45549;DHT22;31270;48.328;10.096;2022-11-15T13:33:44;13.50;99.90
45549;DHT22;31270;48.328;10.096;2022-11-15T13:36:15;13.40;99.90
45549;DHT22;31270;48.328;10.096;2022-11-15T13:38:43;13.40;99.90
45549;DHT22;31270;48.328;10.096;2022-11-15T13:41:18;13.40;99.90
45549;DHT22;31270;48.328;10.096;2022-11-15T13:43:46;13.50;99.90
45549;DHT22;31270;48.328;10.096;2022-11-15T13:46:28;13.40;99.90
45549;DHT22;31270;48.328;10.096;2022-11-15T13:49:08;13.50;99.90
45549;DHT22;31270;48.328;10.096;2022-11-15T13:51:44;13.50;99.90
45549;DHT22;31270;48.328;10.096;2022-11-15T13:56:40;13.60;99.90
45549;DHT22;31270;48.328;10.096;2022-11-15T14:01:57;13.40;99.90
45549;DHT22;31270;48.328;10.096;2022-11-15T14:04:25;13.20;99.90
45549;DHT22;31270;48.328;10.096;2022-11-15T14:06:56;13.10;99.90
45549;DHT22;31270;48.328;10.096;2022-11-15T14:11:56;13.00;99.90
45549;DHT22;31270;48.328;10.096;2022-11-15T14:14:26;13.10;99.90
45549;DHT22;31270;48.328;10.096;2022-11-15T14:16:54;13.10;99.90
45549;DHT22;31270;48.328;10.096;2022-11-15T14:25:14;13.10;99.90
45549;DHT22;31270;48.328;10.096;2022-11-15T14:27:42;13.10;99.90
45549;DHT22;31270;48.328;10.096;2022-11-15T14:30:16;13.00;99.90
45549;DHT22;31270;48.328;10.096;2022-11-15T14:32:45;12.90;99.90
45549;DHT22;31270;48.328;10.096;2022-11-15T14:35:17;12.80;99.90
45549;DHT22;31270;48.328;10.096;2022-11-15T14:37:44;12.90;99.90
45549;DHT22;31270;48.328;10.096;2022-11-15T14:40:13;12.80;99.90
45549;DHT22;31270;48.328;10.096;2022-11-15T14:42:39;12.70;99.90
45549;DHT22;31270;48.328;10.096;2022-11-15T14:45:19;12.70;99.90
45549;DHT22;31270;48.328;10.096;2022-11-15T14:47:45;12.80;99.90
45549;DHT22;31270;48.328;10.096;2022-11-15T14:50:16;12.80;99.90
45549;DHT22;31270;48.328;10.096;2022-11-15T14:52:42;12.80;99.90
45549;DHT22;31270;48.328;10.096;2022-11-15T14:55:18;12.80;99.90
45549;DHT22;31270;48.328;10.096;2022-11-15T14:57:45;12.80;99.90
45549;DHT22;31270;48.328;10.096;2022-11-15T15:00:11;12.70;99.90
45549;DHT22;31270;48.328;10.096;2022-11-15T15:02:37;12.70;99.90
45549;DHT22;31270;48.328;10.096;2022-11-15T15:07:38;12.60;99.90
45549;DHT22;31270;48.328;10.096;2022-11-15T15:10:04;12.60;99.90
45549;DHT22;31270;48.328;10.096;2022-11-15T15:12:29;12.60;99.90
45549;DHT22;31270;48.328;10.096;2022-11-15T15:14:56;12.50;99.90
45549;DHT22;31270;48.328;10.096;2022-11-15T15:17:21;12.40;99.90
45549;DHT22;31270;48.328;10.096;2022-11-15T15:19:47;12.50;99.90
45549;DHT22;31270;48.328;10.096;2022-11-15T15:22:17;12.40;99.90
45549;DHT22;31270;48.328;10.096;2022-11-15T15:24:45;12.30;99.90
45549;DHT22;31270;48.328;10.096;2022-11-15T15:27:11;12.30;99.90
45549;DHT22;31270;48.328;10.096;2022-11-15T15:29:37;12.30;99.90
45549;DHT22;31270;48.328;10.096;2022-11-15T15:32:03;12.20;99.90
45549;DHT22;31270;48.328;10.096;2022-11-15T15:34:29;12.10;99.90
45549;DHT22;31270;48.328;10.096;2022-11-15T15:37:23;12.10;99.90
45549;DHT22;31270;48.328;10.096;2022-11-15T15:39:51;12.00;99.90
45549;DHT22;31270;48.328;10.096;2022-11-15T15:42:18;11.90;99.90
45549;DHT22;31270;48.328;10.096;2022-11-15T15:44:44;11.90;99.90
45549;DHT22;31270;48.328;10.096;2022-11-15T15:47:15;11.80;99.90
45549;DHT22;31270;48.328;10.096;2022-11-15T15:49:42;11.70;99.90
45549;DHT22;31270;48.328;10.096;2022-11-15T15:52:07;11.70;99.90
45549;DHT22;31270;48.328;10.096;2022-11-15T15:54:33;11.60;99.90
45549;DHT22;31270;48.328;10.096;2022-11-15T15:56:59;11.60;99.90
45549;DHT22;31270;48.328;10.096;2022-11-15T15:59:24;11.50;99.90
45549;DHT22;31270;48.328;10.096;2022-11-15T16:01:50;11.50;99.90
45549;DHT22;31270;48.328;10.096;2022-11-15T16:04:16;11.40;99.90
45549;DHT22;31270;48.328;10.096;2022-11-15T16:06:41;11.30;99.90
45549;DHT22;31270;48.328;10.096;2022-11-15T16:09:17;11.20;99.90
45549;DHT22;31270;48.328;10.096;2022-11-15T16:11:44;11.10;99.90
45549;DHT22;31270;48.328;10.096;2022-11-15T16:14:10;11.10;99.90
45549;DHT22;31270;48.328;10.096;2022-11-15T16:16:37;11.00;99.90
45549;DHT22;31270;48.328;10.096;2022-11-15T16:19:07;11.00;99.90
45549;DHT22;31270;48.328;10.096;2022-11-15T16:21:36;11.00;99.90
45549;DHT22;31270;48.328;10.096;2022-11-15T16:24:02;10.90;99.90
45549;DHT22;31270;48.328;10.096;2022-11-15T16:26:28;10.90;99.90
45549;DHT22;31270;48.328;10.096;2022-11-15T16:28:55;10.90;99.90
45549;DHT22;31270;48.328;10.096;2022-11-15T16:31:20;10.80;99.90
45549;DHT22;31270;48.328;10.096;2022-11-15T16:33:49;10.70;99.90
45549;DHT22;31270;48.328;10.096;2022-11-15T16:36:24;10.70;99.90
45549;DHT22;31270;48.328;10.096;2022-11-15T16:38:50;10.60;99.90
45549;DHT22;31270;48.328;10.096;2022-11-15T16:41:16;10.70;99.90
45549;DHT22;31270;48.328;10.096;2022-11-15T16:43:49;10.50;99.90
45549;DHT22;31270;48.328;10.096;2022-11-15T16:46:23;10.60;99.90
45549;DHT22;31270;48.328;10.096;2022-11-15T16:48:50;10.60;99.90
45549;DHT22;31270;48.328;10.096;2022-11-15T16:51:16;10.60;99.90
45549;DHT22;31270;48.328;10.096;2022-11-15T16:53:43;10.50;99.90
45549;DHT22;31270;48.328;10.096;2022-11-15T16:56:29;10.60;99.90
45549;DHT22;31270;48.328;10.096;2022-11-15T16:58:56;10.60;99.90
45549;DHT22;31270;48.328;10.096;2022-11-15T17:01:36;10.50;99.90
45549;DHT22;31270;48.328;10.096;2022-11-15T17:04:11;10.50;99.90
45549;DHT22;31270;48.328;10.096;2022-11-15T17:06:38;10.50;99.90
45549;DHT22;31270;48.328;10.096;2022-11-15T17:09:05;10.40;99.90
45549;DHT22;31270;48.328;10.096;2022-11-15T17:11:31;10.50;99.90
45549;DHT22;31270;48.328;10.096;2022-11-15T17:13:58;10.40;99.90
45549;DHT22;31270;48.328;10.096;2022-11-15T17:16:27;10.40;99.90
45549;DHT22;31270;48.328;10.096;2022-11-15T17:18:52;10.40;99.90
45549;DHT22;31270;48.328;10.096;2022-11-15T17:21:22;10.30;99.90
45549;DHT22;31270;48.328;10.096;2022-11-15T17:23:48;10.30;99.90
45549;DHT22;31270;48.328;10.096;2022-11-15T17:26:15;10.30;99.90
45549;DHT22;31270;48.328;10.096;2022-11-15T17:28:41;10.20;99.90